sensor_id;sensor_type;location;lat;lon;timestamp;pressure;altitude;pressure_sealevel;temperature;humidity
48848;BME280;36611;51.638;5.784;2023-04-28T00:01:15;101279.31;;;22.07;36.26
48848;BME280;36611;51.638;5.784;2023-04-28T00:03:41;101279.31;;;22.07;36.30
48848;BME280;36611;51.638;5.784;2023-04-28T00:06:08;101271.09;;;22.07;35.95
48848;BME280;36611;51.638;5.784;2023-04-28T00:08:36;101270.06;;;22.08;36.15
48848;BME280;36611;51.638;5.784;2023-04-28T00:11:03;101262.91;;;22.07;36.18
48848;BME280;36611;51.638;5.784;2023-04-28T00:13:29;101260.00;;;22.09;35.96
48848;BME280;36611;51.638;5.784;2023-04-28T00:15:56;101253.66;;;22.08;36.11
48848;BME280;36611;51.638;5.784;2023-04-28T00:18:22;101258.09;;;22.09;36.11
48848;BME280;36611;51.638;5.784;2023-04-28T00:23:15;101260.84;;;22.09;35.87
48848;BME280;36611;51.638;5.784;2023-04-28T00:28:08;101247.16;;;22.09;36.06
48848;BME280;36611;51.638;5.784;2023-04-28T00:30:35;101251.59;;;22.10;35.98
48848;BME280;36611;51.638;5.784;2023-04-28T00:33:01;101244.44;;;22.09;36.12
48848;BME280;36611;51.638;5.784;2023-04-28T00:35:28;101246.13;;;22.10;36.16
48848;BME280;36611;51.638;5.784;2023-04-28T00:37:54;101249.72;;;22.11;36.20
48848;BME280;36611;51.638;5.784;2023-04-28T00:40:21;101243.41;;;22.10;36.10
48848;BME280;36611;51.638;5.784;2023-04-28T00:42:48;101252.63;;;22.09;36.29
48848;BME280;36611;51.638;5.784;2023-04-28T00:45:16;101237.94;;;22.10;35.86
48848;BME280;36611;51.638;5.784;2023-04-28T00:47:42;101230.75;;;22.09;36.34
48848;BME280;36611;51.638;5.784;2023-04-28T00:50:09;101228.00;;;22.09;36.25
48848;BME280;36611;51.638;5.784;2023-04-28T00:52:37;101222.53;;;22.09;35.96
48848;BME280;36611;51.638;5.784;2023-04-28T00:55:07;101224.44;;;22.09;35.93
48848;BME280;36611;51.638;5.784;2023-04-28T00:57:35;101222.53;;;22.09;36.33
48848;BME280;36611;51.638;5.784;2023-04-28T01:00:02;101226.31;;;22.08;35.72
48848;BME280;36611;51.638;5.784;2023-04-28T01:02:29;101220.84;;;22.08;36.28
48848;BME280;36611;51.638;5.784;2023-04-28T01:04:56;101212.63;;;22.08;36.23
48848;BME280;36611;51.638;5.784;2023-04-28T01:07:24;101207.16;;;22.08;36.13
48848;BME280;36611;51.638;5.784;2023-04-28T01:09:51;101207.16;;;22.08;36.06
48848;BME280;36611;51.638;5.784;2023-04-28T01:12:23;101206.31;;;22.08;36.27
48848;BME280;36611;51.638;5.784;2023-04-28T01:14:52;101200.84;;;22.08;36.04
48848;BME280;36611;51.638;5.784;2023-04-28T01:17:18;101196.41;;;22.07;36.31
48848;BME280;36611;51.638;5.784;2023-04-28T01:19:45;101191.78;;;22.07;35.94
48848;BME280;36611;51.638;5.784;2023-04-28T01:22:12;101199.97;;;22.07;35.86
48848;BME280;36611;51.638;5.784;2023-04-28T01:24:42;101199.97;;;22.07;36.00
48848;BME280;36611;51.638;5.784;2023-04-28T01:27:11;101198.28;;;22.06;35.93
48848;BME280;36611;51.638;5.784;2023-04-28T01:29:40;101190.94;;;22.07;36.12
48848;BME280;36611;51.638;5.784;2023-04-28T01:32:06;101189.03;;;22.07;35.88
48848;BME280;36611;51.638;5.784;2023-04-28T01:34:33;101180.84;;;22.07;36.00
48848;BME280;36611;51.638;5.784;2023-04-28T01:37:00;101175.38;;;22.07;35.75
48848;BME280;36611;51.638;5.784;2023-04-28T01:39:26;101168.00;;;22.08;36.27
48848;BME280;36611;51.638;5.784;2023-04-28T01:41:54;101165.47;;;22.06;36.26
48848;BME280;36611;51.638;5.784;2023-04-28T01:44:21;101167.16;;;22.07;35.75
48848;BME280;36611;51.638;5.784;2023-04-28T01:46:47;101169.91;;;22.07;36.03
48848;BME280;36611;51.638;5.784;2023-04-28T01:49:14;101162.72;;;22.06;35.86
48848;BME280;36611;51.638;5.784;2023-04-28T01:51:40;101166.31;;;22.07;35.81
48848;BME280;36611;51.638;5.784;2023-04-28T01:54:08;101164.44;;;22.07;36.04
48848;BME280;36611;51.638;5.784;2023-04-28T01:56:35;101160.84;;;22.07;36.22
48848;BME280;36611;51.638;5.784;2023-04-28T01:59:03;101151.78;;;22.06;36.01
48848;BME280;36611;51.638;5.784;2023-04-28T02:01:30;101151.78;;;22.06;35.92
48848;BME280;36611;51.638;5.784;2023-04-28T02:03:57;101154.50;;;22.06;35.81
48848;BME280;36611;51.638;5.784;2023-04-28T02:06:24;101153.47;;;22.07;36.00
48848;BME280;36611;51.638;5.784;2023-04-28T02:08:50;101141.69;;;22.07;35.97
48848;BME280;36611;51.638;5.784;2023-04-28T02:11:17;101141.69;;;22.07;36.21
48848;BME280;36611;51.638;5.784;2023-04-28T02:13:44;101137.06;;;22.07;36.11
48848;BME280;36611;51.638;5.784;2023-04-28T02:16:10;101114.34;;;22.07;35.88
48848;BME280;36611;51.638;5.784;2023-04-28T02:18:37;101118.97;;;22.06;35.83
48848;BME280;36611;51.638;5.784;2023-04-28T02:21:10;101127.16;;;22.06;36.00
48848;BME280;36611;51.638;5.784;2023-04-28T02:23:40;101129.91;;;22.06;36.13
48848;BME280;36611;51.638;5.784;2023-04-28T02:26:07;101133.66;;;22.05;35.91
48848;BME280;36611;51.638;5.784;2023-04-28T02:28:34;101133.66;;;22.05;35.98
48848;BME280;36611;51.638;5.784;2023-04-28T02:31:08;101138.09;;;22.06;36.21
48848;BME280;36611;51.638;5.784;2023-04-28T02:33:36;101129.91;;;22.06;36.26
48848;BME280;36611;51.638;5.784;2023-04-28T02:36:04;101129.91;;;22.06;35.79
48848;BME280;36611;51.638;5.784;2023-04-28T02:38:31;101131.78;;;22.06;36.12
48848;BME280;36611;51.638;5.784;2023-04-28T02:41:01;101129.03;;;22.06;36.17
48848;BME280;36611;51.638;5.784;2023-04-28T02:43:31;101125.47;;;22.05;36.00
48848;BME280;36611;51.638;5.784;2023-04-28T02:45:58;101116.41;;;22.05;36.25
48848;BME280;36611;51.638;5.784;2023-04-28T02:48:25;101109.03;;;22.05;36.43
48848;BME280;36611;51.638;5.784;2023-04-28T02:50:52;101093.50;;;22.06;36.11
48848;BME280;36611;51.638;5.784;2023-04-28T02:53:20;101083.56;;;22.05;36.00
48848;BME280;36611;51.638;5.784;2023-04-28T02:55:47;101080.66;;;22.06;36.12
48848;BME280;36611;51.638;5.784;2023-04-28T02:58:14;101077.94;;;22.06;35.88
48848;BME280;36611;51.638;5.784;2023-04-28T03:00:41;101068.88;;;22.06;35.82
48848;BME280;36611;51.638;5.784;2023-04-28T03:03:08;101060.66;;;22.06;35.92
48848;BME280;36611;51.638;5.784;2023-04-28T03:05:34;101054.16;;;22.07;36.00
48848;BME280;36611;51.638;5.784;2023-04-28T03:08:01;101044.25;;;22.06;36.08
48848;BME280;36611;51.638;5.784;2023-04-28T03:10:27;101033.13;;;22.07;35.85
48848;BME280;36611;51.638;5.784;2023-04-28T03:12:54;101028.69;;;22.06;35.98
48848;BME280;36611;51.638;5.784;2023-04-28T03:15:20;101033.13;;;22.07;36.42
48848;BME280;36611;51.638;5.784;2023-04-28T03:17:47;101043.22;;;22.07;36.30
48848;BME280;36611;51.638;5.784;2023-04-28T03:20:14;101042.19;;;22.08;35.90
48848;BME280;36611;51.638;5.784;2023-04-28T03:22:40;101040.50;;;22.07;35.95
48848;BME280;36611;51.638;5.784;2023-04-28T03:25:07;101045.97;;;22.07;36.28
48848;BME280;36611;51.638;5.784;2023-04-28T03:27:43;101046.81;;;22.07;36.19
48848;BME280;36611;51.638;5.784;2023-04-28T03:30:10;101049.56;;;22.07;36.12
48848;BME280;36611;51.638;5.784;2023-04-28T03:32:37;101055.03;;;22.07;36.00
48848;BME280;36611;51.638;5.784;2023-04-28T03:35:04;101044.06;;;22.07;35.83
48848;BME280;36611;51.638;5.784;2023-04-28T03:37:31;101037.75;;;22.07;36.28
48848;BME280;36611;51.638;5.784;2023-04-28T03:39:57;101027.66;;;22.07;35.94
48848;BME280;36611;51.638;5.784;2023-04-28T03:42:24;101035.03;;;22.07;35.93
48848;BME280;36611;51.638;5.784;2023-04-28T03:45:07;101034.16;;;22.06;35.82
48848;BME280;36611;51.638;5.784;2023-04-28T03:47:34;101029.56;;;22.07;35.80
48848;BME280;36611;51.638;5.784;2023-04-28T03:50:02;101030.41;;;22.07;35.86
48848;BME280;36611;51.638;5.784;2023-04-28T03:52:29;101027.66;;;22.07;36.16
48848;BME280;36611;51.638;5.784;2023-04-28T03:54:56;101027.66;;;22.07;36.17
48848;BME280;36611;51.638;5.784;2023-04-28T03:57:22;101028.50;;;22.08;35.79
48848;BME280;36611;51.638;5.784;2023-04-28T03:59:49;101028.50;;;22.08;35.85
48848;BME280;36611;51.638;5.784;2023-04-28T04:02:16;101027.66;;;22.07;35.97
48848;BME280;36611;51.638;5.784;2023-04-28T04:04:43;101014.00;;;22.07;35.88
48848;BME280;36611;51.638;5.784;2023-04-28T04:07:10;101022.03;;;22.09;35.97
48848;BME280;36611;51.638;5.784;2023-04-28T04:09:37;101007.50;;;22.08;36.21
48848;BME280;36611;51.638;5.784;2023-04-28T04:12:04;101007.50;;;22.08;35.84
48848;BME280;36611;51.638;5.784;2023-04-28T04:14:32;101004.75;;;22.08;36.15
48848;BME280;36611;51.638;5.784;2023-04-28T04:16:58;101010.22;;;22.08;36.09
48848;BME280;36611;51.638;5.784;2023-04-28T04:19:26;101009.38;;;22.08;35.98
48848;BME280;36611;51.638;5.784;2023-04-28T04:21:54;101012.09;;;22.08;36.17
48848;BME280;36611;51.638;5.784;2023-04-28T04:24:20;101014.84;;;22.08;35.98
48848;BME280;36611;51.638;5.784;2023-04-28T04:26:47;101003.91;;;22.08;35.96
48848;BME280;36611;51.638;5.784;2023-04-28T04:29:28;101016.72;;;22.07;35.93
48848;BME280;36611;51.638;5.784;2023-04-28T04:31:55;101006.63;;;22.08;35.92
48848;BME280;36611;51.638;5.784;2023-04-28T04:34:21;101007.50;;;22.08;35.87
48848;BME280;36611;51.638;5.784;2023-04-28T04:36:48;100992.97;;;22.08;36.13
48848;BME280;36611;51.638;5.784;2023-04-28T04:39:15;100991.06;;;22.08;36.25
48848;BME280;36611;51.638;5.784;2023-04-28T04:41:41;100989.38;;;22.07;35.98
48848;BME280;36611;51.638;5.784;2023-04-28T04:44:31;100990.22;;;22.08;35.87
48848;BME280;36611;51.638;5.784;2023-04-28T04:46:58;100989.38;;;22.07;36.19
48848;BME280;36611;51.638;5.784;2023-04-28T04:49:25;100991.06;;;22.08;36.09
48848;BME280;36611;51.638;5.784;2023-04-28T04:51:52;100990.22;;;22.08;36.11
48848;BME280;36611;51.638;5.784;2023-04-28T04:54:18;100990.22;;;22.08;36.04
48848;BME280;36611;51.638;5.784;2023-04-28T04:56:45;100995.50;;;22.09;36.12
48848;BME280;36611;51.638;5.784;2023-04-28T04:59:18;100992.97;;;22.08;36.16
48848;BME280;36611;51.638;5.784;2023-04-28T05:01:57;100996.53;;;22.08;36.06
48848;BME280;36611;51.638;5.784;2023-04-28T05:04:23;100990.22;;;22.08;36.31
48848;BME280;36611;51.638;5.784;2023-04-28T05:06:50;100994.66;;;22.09;36.21
48848;BME280;36611;51.638;5.784;2023-04-28T05:09:18;100981.00;;;22.09;35.96
48848;BME280;36611;51.638;5.784;2023-04-28T05:11:45;100980.13;;;22.08;35.84
48848;BME280;36611;51.638;5.784;2023-04-28T05:14:11;100980.13;;;22.08;35.74
48848;BME280;36611;51.638;5.784;2023-04-28T05:16:40;100981.84;;;22.09;35.97
48848;BME280;36611;51.638;5.784;2023-04-28T05:19:15;100974.66;;;22.08;36.16
48848;BME280;36611;51.638;5.784;2023-04-28T05:21:42;100976.38;;;22.09;36.04
48848;BME280;36611;51.638;5.784;2023-04-28T05:24:08;100978.25;;;22.09;36.21
48848;BME280;36611;51.638;5.784;2023-04-28T05:26:35;100982.88;;;22.08;35.92
48848;BME280;36611;51.638;5.784;2023-04-28T05:29:06;100983.53;;;22.10;36.06
48848;BME280;36611;51.638;5.784;2023-04-28T05:31:33;100976.38;;;22.09;36.27
48848;BME280;36611;51.638;5.784;2023-04-28T05:33:59;100968.16;;;22.09;36.00
48848;BME280;36611;51.638;5.784;2023-04-28T05:36:26;100964.41;;;22.10;36.20
48848;BME280;36611;51.638;5.784;2023-04-28T05:38:53;100957.03;;;22.11;36.15
48848;BME280;36611;51.638;5.784;2023-04-28T05:41:20;100951.56;;;22.11;36.20
48848;BME280;36611;51.638;5.784;2023-04-28T05:43:47;100950.72;;;22.10;36.14
48848;BME280;36611;51.638;5.784;2023-04-28T05:46:16;100946.94;;;22.11;35.96
48848;BME280;36611;51.638;5.784;2023-04-28T05:48:57;100937.22;;;22.09;35.91
48848;BME280;36611;51.638;5.784;2023-04-28T05:51:25;100940.63;;;22.11;35.99
48848;BME280;36611;51.638;5.784;2023-04-28T05:53:52;100950.53;;;22.12;36.08
48848;BME280;36611;51.638;5.784;2023-04-28T05:56:19;100955.16;;;22.11;35.99
48848;BME280;36611;51.638;5.784;2023-04-28T05:58:46;100960.63;;;22.11;35.82
48848;BME280;36611;51.638;5.784;2023-04-28T06:01:16;100965.25;;;22.11;35.80
48848;BME280;36611;51.638;5.784;2023-04-28T06:03:42;100966.09;;;22.11;35.90
48848;BME280;36611;51.638;5.784;2023-04-28T06:06:10;100959.78;;;22.11;36.13
48848;BME280;36611;51.638;5.784;2023-04-28T06:08:37;100946.94;;;22.11;36.17
48848;BME280;36611;51.638;5.784;2023-04-28T06:11:04;100953.09;;;22.13;36.06
48848;BME280;36611;51.638;5.784;2023-04-28T06:13:31;100948.66;;;22.12;36.01
48848;BME280;36611;51.638;5.784;2023-04-28T06:15:58;100956.84;;;22.12;36.14
48848;BME280;36611;51.638;5.784;2023-04-28T06:18:25;100962.34;;;22.12;36.23
48848;BME280;36611;51.638;5.784;2023-04-28T06:20:52;100965.06;;;22.12;36.16
48848;BME280;36611;51.638;5.784;2023-04-28T06:23:18;100954.97;;;22.13;35.88
48848;BME280;36611;51.638;5.784;2023-04-28T06:25:47;100955.81;;;22.13;35.97
48848;BME280;36611;51.638;5.784;2023-04-28T06:28:13;100948.66;;;22.12;35.98
48848;BME280;36611;51.638;5.784;2023-04-28T06:30:40;100957.72;;;22.13;36.16
48848;BME280;36611;51.638;5.784;2023-04-28T06:33:07;100957.53;;;22.14;36.16
48848;BME280;36611;51.638;5.784;2023-04-28T06:35:34;100964.88;;;22.14;36.14
48848;BME280;36611;51.638;5.784;2023-04-28T06:38:01;100964.03;;;22.13;36.23
48848;BME280;36611;51.638;5.784;2023-04-28T06:40:29;100955.81;;;22.13;35.82
48848;BME280;36611;51.638;5.784;2023-04-28T06:42:59;100955.81;;;22.13;35.82
48848;BME280;36611;51.638;5.784;2023-04-28T06:45:48;100944.03;;;22.13;35.73
48848;BME280;36611;51.638;5.784;2023-04-28T06:48:14;100947.63;;;22.13;35.97
48848;BME280;36611;51.638;5.784;2023-04-28T06:50:41;100950.34;;;22.13;36.22
48848;BME280;36611;51.638;5.784;2023-04-28T06:53:09;100943.84;;;22.14;36.15
48848;BME280;36611;51.638;5.784;2023-04-28T06:55:36;100941.31;;;22.13;35.96
48848;BME280;36611;51.638;5.784;2023-04-28T06:58:03;100944.88;;;22.13;36.27
48848;BME280;36611;51.638;5.784;2023-04-28T07:00:32;100936.69;;;22.13;36.06
48848;BME280;36611;51.638;5.784;2023-04-28T07:02:59;100941.13;;;22.14;36.13
48848;BME280;36611;51.638;5.784;2023-04-28T07:05:26;100944.88;;;22.13;36.16
48848;BME280;36611;51.638;5.784;2023-04-28T07:07:54;100937.53;;;22.14;35.78
48848;BME280;36611;51.638;5.784;2023-04-28T07:10:20;100939.41;;;22.13;36.26
48848;BME280;36611;51.638;5.784;2023-04-28T07:12:49;100940.25;;;22.14;35.91
48848;BME280;36611;51.638;5.784;2023-04-28T07:15:17;100944.03;;;22.13;35.90
48848;BME280;36611;51.638;5.784;2023-04-28T07:17:44;100937.72;;;22.12;36.07
48848;BME280;36611;51.638;5.784;2023-04-28T07:20:11;100939.41;;;22.13;36.17
48848;BME280;36611;51.638;5.784;2023-04-28T07:22:38;100937.72;;;22.12;36.20
48848;BME280;36611;51.638;5.784;2023-04-28T07:25:04;100938.56;;;22.13;35.95
48848;BME280;36611;51.638;5.784;2023-04-28T07:27:31;100944.88;;;22.13;36.07
48848;BME280;36611;51.638;5.784;2023-04-28T07:29:58;100942.34;;;22.12;35.86
48848;BME280;36611;51.638;5.784;2023-04-28T07:32:24;100943.19;;;22.12;36.02
48848;BME280;36611;51.638;5.784;2023-04-28T07:34:51;100941.31;;;22.13;36.22
48848;BME280;36611;51.638;5.784;2023-04-28T07:37:18;100933.09;;;22.13;36.04
48848;BME280;36611;51.638;5.784;2023-04-28T07:39:44;100937.72;;;22.12;35.97
48848;BME280;36611;51.638;5.784;2023-04-28T07:42:12;100936.00;;;22.11;35.83
48848;BME280;36611;51.638;5.784;2023-04-28T07:44:39;100936.00;;;22.11;35.82
48848;BME280;36611;51.638;5.784;2023-04-28T07:47:05;100930.53;;;22.11;35.84
48848;BME280;36611;51.638;5.784;2023-04-28T07:49:32;100921.47;;;22.11;36.23
48848;BME280;36611;51.638;5.784;2023-04-28T07:51:58;100929.88;;;22.09;36.02
48848;BME280;36611;51.638;5.784;2023-04-28T07:54:25;100933.28;;;22.11;36.15
48848;BME280;36611;51.638;5.784;2023-04-28T07:56:51;100926.94;;;22.11;35.70
48848;BME280;36611;51.638;5.784;2023-04-28T07:59:18;100927.81;;;22.11;35.86
48848;BME280;36611;51.638;5.784;2023-04-28T08:01:45;100926.94;;;22.11;35.86
48848;BME280;36611;51.638;5.784;2023-04-28T08:04:11;100924.22;;;22.11;35.89
48848;BME280;36611;51.638;5.784;2023-04-28T08:06:39;100928.84;;;22.10;36.12
48848;BME280;36611;51.638;5.784;2023-04-28T08:09:06;100924.22;;;22.11;36.09
48848;BME280;36611;51.638;5.784;2023-04-28T08:11:33;100923.38;;;22.10;35.84
48848;BME280;36611;51.638;5.784;2023-04-28T08:14:00;100920.63;;;22.10;35.80
48848;BME280;36611;51.638;5.784;2023-04-28T08:16:29;100916.19;;;22.09;35.90
48848;BME280;36611;51.638;5.784;2023-04-28T08:18:56;100924.41;;;22.09;36.04
48848;BME280;36611;51.638;5.784;2023-04-28T08:21:23;100931.56;;;22.10;35.84
48848;BME280;36611;51.638;5.784;2023-04-28T08:23:50;100934.50;;;22.09;35.84
48848;BME280;36611;51.638;5.784;2023-04-28T08:26:16;100932.59;;;22.09;36.27
48848;BME280;36611;51.638;5.784;2023-04-28T08:28:43;100949.00;;;22.09;35.79
48848;BME280;36611;51.638;5.784;2023-04-28T08:31:09;100945.44;;;22.09;36.09
48848;BME280;36611;51.638;5.784;2023-04-28T08:33:36;100939.09;;;22.08;36.25
48848;BME280;36611;51.638;5.784;2023-04-28T08:36:03;100939.97;;;22.09;36.14
48848;BME280;36611;51.638;5.784;2023-04-28T08:38:30;100934.50;;;22.09;35.96
48848;BME280;36611;51.638;5.784;2023-04-28T08:40:57;100933.63;;;22.08;35.97
48848;BME280;36611;51.638;5.784;2023-04-28T08:43:24;100931.56;;;22.10;36.11
48848;BME280;36611;51.638;5.784;2023-04-28T08:45:50;100931.56;;;22.10;35.90
48848;BME280;36611;51.638;5.784;2023-04-28T08:48:19;100940.63;;;22.11;35.87
48848;BME280;36611;51.638;5.784;2023-04-28T08:50:51;100936.84;;;22.12;36.01
48848;BME280;36611;51.638;5.784;2023-04-28T08:53:24;100937.72;;;22.12;36.10
48848;BME280;36611;51.638;5.784;2023-04-28T08:55:55;100940.44;;;22.12;36.02
48848;BME280;36611;51.638;5.784;2023-04-28T08:58:23;100936.84;;;22.12;36.28
48848;BME280;36611;51.638;5.784;2023-04-28T09:00:51;100935.81;;;22.13;36.13
48848;BME280;36611;51.638;5.784;2023-04-28T09:03:17;100935.81;;;22.13;36.13
48848;BME280;36611;51.638;5.784;2023-04-28T09:05:45;100930.34;;;22.13;35.76
48848;BME280;36611;51.638;5.784;2023-04-28T09:08:11;100933.09;;;22.13;35.82
48848;BME280;36611;51.638;5.784;2023-04-28T09:10:38;100935.81;;;22.13;35.85
48848;BME280;36611;51.638;5.784;2023-04-28T09:13:05;100939.41;;;22.13;35.90
48848;BME280;36611;51.638;5.784;2023-04-28T09:15:34;100932.91;;;22.14;36.14
48848;BME280;36611;51.638;5.784;2023-04-28T09:18:02;100932.91;;;22.14;36.03
48848;BME280;36611;51.638;5.784;2023-04-28T09:20:30;100926.41;;;22.15;36.27
48848;BME280;36611;51.638;5.784;2023-04-28T09:23:20;100928.28;;;22.15;35.96
48848;BME280;36611;51.638;5.784;2023-04-28T09:26:06;100925.56;;;22.15;35.78
48848;BME280;36611;51.638;5.784;2023-04-28T09:28:36;100915.84;;;22.12;36.19
48848;BME280;36611;51.638;5.784;2023-04-28T09:31:03;100923.00;;;22.13;36.00
48848;BME280;36611;51.638;5.784;2023-04-28T09:33:29;100922.16;;;22.13;36.22
48848;BME280;36611;51.638;5.784;2023-04-28T09:35:56;100927.44;;;22.14;35.84
48848;BME280;36611;51.638;5.784;2023-04-28T09:38:23;100926.59;;;22.14;35.70
48848;BME280;36611;51.638;5.784;2023-04-28T09:43:33;100925.56;;;22.15;35.92
48848;BME280;36611;51.638;5.784;2023-04-28T09:46:02;100925.75;;;22.13;35.85
48848;BME280;36611;51.638;5.784;2023-04-28T09:48:29;100932.25;;;22.12;35.86
48848;BME280;36611;51.638;5.784;2023-04-28T09:50:58;100925.75;;;22.13;36.31
48848;BME280;36611;51.638;5.784;2023-04-28T09:53:26;100920.44;;;22.12;36.15
48848;BME280;36611;51.638;5.784;2023-04-28T09:55:54;100914.97;;;22.12;36.13
48848;BME280;36611;51.638;5.784;2023-04-28T09:58:23;100921.31;;;22.12;36.10
48848;BME280;36611;51.638;5.784;2023-04-28T10:00:55;100919.59;;;22.11;35.93
48848;BME280;36611;51.638;5.784;2023-04-28T10:03:27;100924.03;;;22.12;36.11
48848;BME280;36611;51.638;5.784;2023-04-28T10:05:56;100923.19;;;22.12;36.01
48848;BME280;36611;51.638;5.784;2023-04-28T10:08:25;100925.06;;;22.11;36.15
48848;BME280;36611;51.638;5.784;2023-04-28T10:10:53;100918.75;;;22.11;36.35
48848;BME280;36611;51.638;5.784;2023-04-28T10:13:21;100925.06;;;22.11;36.36
48848;BME280;36611;51.638;5.784;2023-04-28T10:15:49;100928.84;;;22.10;36.00
48848;BME280;36611;51.638;5.784;2023-04-28T10:18:16;100931.56;;;22.10;36.28
48848;BME280;36611;51.638;5.784;2023-04-28T10:20:57;100928.84;;;22.10;35.97
48848;BME280;36611;51.638;5.784;2023-04-28T10:26:09;100929.88;;;22.09;35.99
48848;BME280;36611;51.638;5.784;2023-04-28T10:28:36;100931.75;;;22.09;36.34
48848;BME280;36611;51.638;5.784;2023-04-28T10:31:13;100924.41;;;22.09;36.31
48848;BME280;36611;51.638;5.784;2023-04-28T10:33:41;100924.41;;;22.09;36.30
48848;BME280;36611;51.638;5.784;2023-04-28T10:36:08;100921.66;;;22.09;36.41
48848;BME280;36611;51.638;5.784;2023-04-28T10:38:35;100921.66;;;22.09;36.29
48848;BME280;36611;51.638;5.784;2023-04-28T10:41:31;100920.81;;;22.09;36.10
48848;BME280;36611;51.638;5.784;2023-04-28T10:43:57;100922.69;;;22.08;36.22
48848;BME280;36611;51.638;5.784;2023-04-28T10:46:24;100910.72;;;22.09;36.18
48848;BME280;36611;51.638;5.784;2023-04-28T10:48:51;100915.34;;;22.09;36.08
48848;BME280;36611;51.638;5.784;2023-04-28T10:56:23;100917.22;;;22.08;35.92
48848;BME280;36611;51.638;5.784;2023-04-28T10:58:56;100917.22;;;22.08;36.16
48848;BME280;36611;51.638;5.784;2023-04-28T11:01:27;100912.78;;;22.07;36.29
48848;BME280;36611;51.638;5.784;2023-04-28T11:03:56;100915.53;;;22.07;36.19
48848;BME280;36611;51.638;5.784;2023-04-28T11:09:02;100922.88;;;22.07;36.21
48848;BME280;36611;51.638;5.784;2023-04-28T11:11:30;100916.56;;;22.06;36.42
48848;BME280;36611;51.638;5.784;2023-04-28T11:16:58;100911.94;;;22.07;36.31
48848;BME280;36611;51.638;5.784;2023-04-28T11:19:26;100912.13;;;22.05;36.10
48848;BME280;36611;51.638;5.784;2023-04-28T11:21:57;100919.28;;;22.06;36.00
48848;BME280;36611;51.638;5.784;2023-04-28T11:24:25;100917.59;;;22.05;36.17
48848;BME280;36611;51.638;5.784;2023-04-28T11:26:52;100914.84;;;22.05;36.29
48848;BME280;36611;51.638;5.784;2023-04-28T11:29:32;100918.25;;;22.07;36.46
48848;BME280;36611;51.638;5.784;2023-04-28T11:31:59;100908.53;;;22.05;36.01
48848;BME280;36611;51.638;5.784;2023-04-28T11:34:26;100909.38;;;22.05;36.20
48848;BME280;36611;51.638;5.784;2023-04-28T11:36:53;100910.25;;;22.06;36.20
48848;BME280;36611;51.638;5.784;2023-04-28T11:39:30;100895.53;;;22.07;36.32
48848;BME280;36611;51.638;5.784;2023-04-28T11:41:59;100894.69;;;22.06;36.24
48848;BME280;36611;51.638;5.784;2023-04-28T11:44:27;100898.25;;;22.07;36.16
48848;BME280;36611;51.638;5.784;2023-04-28T11:46:59;100890.91;;;22.07;36.24
48848;BME280;36611;51.638;5.784;2023-04-28T11:49:31;100899.13;;;22.07;36.43
48848;BME280;36611;51.638;5.784;2023-04-28T11:52:07;100906.28;;;22.08;36.53
48848;BME280;36611;51.638;5.784;2023-04-28T11:54:35;100901.84;;;22.07;36.22
48848;BME280;36611;51.638;5.784;2023-04-28T11:57:03;100902.69;;;22.08;36.41
48848;BME280;36611;51.638;5.784;2023-04-28T11:59:32;100905.44;;;22.08;36.05
48848;BME280;36611;51.638;5.784;2023-04-28T12:02:04;100906.47;;;22.07;36.53
48848;BME280;36611;51.638;5.784;2023-04-28T12:04:36;100910.25;;;22.06;36.17
48848;BME280;36611;51.638;5.784;2023-04-28T12:07:14;100904.59;;;22.07;36.21
48848;BME280;36611;51.638;5.784;2023-04-28T12:10:27;100896.56;;;22.06;36.34
48848;BME280;36611;51.638;5.784;2023-04-28T12:12:29;100904.78;;;22.06;36.37
48848;BME280;36611;51.638;5.784;2023-04-28T12:15:11;100912.97;;;22.06;36.20
48848;BME280;36611;51.638;5.784;2023-04-28T12:17:41;100911.94;;;22.07;36.47
48848;BME280;36611;51.638;5.784;2023-04-28T12:20:12;100906.47;;;22.07;36.49
48848;BME280;36611;51.638;5.784;2023-04-28T12:22:58;100909.38;;;22.05;36.31
48848;BME280;36611;51.638;5.784;2023-04-28T12:25:24;100914.84;;;22.05;36.25
48848;BME280;36611;51.638;5.784;2023-04-28T12:28:05;100914.69;;;22.07;36.28
48848;BME280;36611;51.638;5.784;2023-04-28T12:30:36;100922.22;;;22.05;36.28
48848;BME280;36611;51.638;5.784;2023-04-28T12:33:22;100923.06;;;22.05;36.30
48848;BME280;36611;51.638;5.784;2023-04-28T12:35:50;100928.72;;;22.04;36.44
48848;BME280;36611;51.638;5.784;2023-04-28T12:38:17;100926.81;;;22.04;36.31
48848;BME280;36611;51.638;5.784;2023-04-28T12:40:44;100929.56;;;22.04;36.53
48848;BME280;36611;51.638;5.784;2023-04-28T12:43:11;100925.13;;;22.03;36.23
48848;BME280;36611;51.638;5.784;2023-04-28T12:45:37;100928.72;;;22.04;36.41
48848;BME280;36611;51.638;5.784;2023-04-28T12:48:04;100935.03;;;22.04;36.44
48848;BME280;36611;51.638;5.784;2023-04-28T12:50:31;100925.13;;;22.03;36.17
48848;BME280;36611;51.638;5.784;2023-04-28T12:52:58;100935.03;;;22.04;36.43
48848;BME280;36611;51.638;5.784;2023-04-28T12:55:26;100933.34;;;22.03;36.61
48848;BME280;36611;51.638;5.784;2023-04-28T12:57:53;100924.09;;;22.04;36.39
48848;BME280;36611;51.638;5.784;2023-04-28T13:00:20;100929.56;;;22.04;36.14
48848;BME280;36611;51.638;5.784;2023-04-28T13:02:48;100931.44;;;22.04;36.50
48848;BME280;36611;51.638;5.784;2023-04-28T13:05:16;100923.25;;;22.04;36.33
48848;BME280;36611;51.638;5.784;2023-04-28T13:07:44;100933.16;;;22.05;36.36
48848;BME280;36611;51.638;5.784;2023-04-28T13:10:11;100932.31;;;22.04;36.53
48848;BME280;36611;51.638;5.784;2023-04-28T13:12:38;100928.72;;;22.04;36.73
48848;BME280;36611;51.638;5.784;2023-04-28T13:15:06;100939.47;;;22.05;36.54
48848;BME280;36611;51.638;5.784;2023-04-28T13:17:33;100943.91;;;22.06;36.60